Time;durP1;ratioP1;P1;durP2;ratioP2;P2;SDS_P1;SDS_P2;PMS_P1;PMS_P2;Temp;Humidity;BMP_temperature;BMP_pressure;BME280_temperature;BME280_humidity;BME280_pressure;Samples;Min_cycle;Max_cycle;Signal;HPM_P1;HPM_P2
2022/10/22 00:01:59;;;;;;;4.88;2.28;;;14.00;99.90;;;;;;5059611;28;20024;-80
2022/10/22 00:04:25;;;;;;;8.52;3.53;;;14.00;99.90;;;;;;5077389;28;20027;-79
2022/10/22 00:06:51;;;;;;;5.95;3.20;;;13.90;99.90;;;;;;5077614;28;20111;-80
2022/10/22 00:09:16;;;;;;;6.47;3.00;;;13.90;99.90;;;;;;5077339;28;20025;-79
2022/10/22 00:11:42;;;;;;;5.68;3.15;;;13.90;99.90;;;;;;5077113;28;20040;-79
2022/10/22 00:14:08;;;;;;;8.05;3.35;;;14.00;99.90;;;;;;5094124;28;20088;-79
2022/10/22 00:16:33;;;;;;;6.00;2.88;;;13.90;99.90;;;;;;5093936;28;20392;-80
2022/10/22 00:18:59;;;;;;;6.88;3.20;;;13.90;99.90;;;;;;5077087;28;20440;-79
2022/10/22 00:21:27;;;;;;;6.53;3.40;;;13.90;99.90;;;;;;5077106;28;20028;-79
2022/10/22 00:23:54;;;;;;;7.57;3.30;;;13.90;99.90;;;;;;5077304;28;20028;-79
2022/10/22 00:26:20;;;;;;;7.38;3.55;;;13.90;99.90;;;;;;5060443;28;20024;-79
2022/10/22 00:28:45;;;;;;;7.47;3.45;;;13.90;99.90;;;;;;5076883;28;20384;-79
2022/10/22 00:31:11;;;;;;;4.95;3.13;;;13.90;99.90;;;;;;5060194;28;20024;-80
2022/10/22 00:33:37;;;;;;;7.90;3.15;;;13.90;99.90;;;;;;5060174;28;20032;-80
2022/10/22 00:36:03;;;;;;;7.25;3.22;;;13.90;99.90;;;;;;5060447;28;20035;-79
2022/10/22 00:38:28;;;;;;;6.55;3.15;;;13.90;99.90;;;;;;5093515;28;20035;-79
2022/10/22 00:40:54;;;;;;;6.25;3.22;;;13.90;99.90;;;;;;5076812;28;20028;-79
2022/10/22 00:43:20;;;;;;;8.95;3.80;;;13.80;99.90;;;;;;5076543;28;20028;-79
2022/10/22 00:45:46;;;;;;;6.15;3.40;;;13.90;99.90;;;;;;5094857;28;20400;-80
2022/10/22 00:48:20;;;;;;;9.32;3.13;;;13.90;99.90;;;;;;5093323;28;20019;-80
2022/10/22 00:51:02;;;;;;;6.38;2.95;;;13.90;99.90;;;;;;5093348;28;20023;-80
2022/10/22 00:53:42;;;;;;;8.07;2.88;;;13.80;99.90;;;;;;5093230;28;20062;-80
2022/10/22 00:56:09;;;;;;;5.68;2.80;;;13.80;99.90;;;;;;5093216;28;20499;-80
2022/10/22 00:58:40;;;;;;;5.47;3.17;;;13.80;99.90;;;;;;5077059;28;20024;-79
2022/10/22 01:01:11;;;;;;;5.25;2.83;;;13.80;99.90;;;;;;5094633;28;20059;-79
2022/10/22 01:03:37;;;;;;;7.95;3.08;;;13.70;99.90;;;;;;5092914;28;20361;-79
2022/10/22 01:06:04;;;;;;;5.65;2.65;;;13.70;99.90;;;;;;5093022;28;20107;-79
2022/10/22 01:08:55;;;;;;;5.45;3.38;;;13.70;99.90;;;;;;5076105;28;20049;-79
2022/10/22 01:11:28;;;;;;;7.07;3.20;;;13.60;99.90;;;;;;5094022;28;20047;-80
2022/10/22 01:14:06;;;;;;;8.67;4.80;;;13.70;99.90;;;;;;5092534;28;20119;-79
2022/10/22 01:16:52;;;;;;;10.52;7.32;;;13.60;99.90;;;;;;5092769;28;20116;-79
2022/10/22 01:19:59;;;;;;;13.65;8.80;;;13.60;99.90;;;;;;5093695;28;20035;-84
2022/10/22 01:22:49;;;;;;;12.45;9.95;;;13.60;99.90;;;;;;5092867;28;20610;-84
2022/10/22 01:25:34;;;;;;;16.30;11.52;;;13.50;99.90;;;;;;5093230;28;20024;-85
2022/10/22 01:28:26;;;;;;;19.48;12.50;;;13.50;99.90;;;;;;5092897;28;20119;-84
2022/10/22 01:30:55;;;;;;;17.30;11.85;;;13.50;99.90;;;;;;5092762;28;20020;-84
2022/10/22 01:33:24;;;;;;;17.13;12.82;;;13.40;99.90;;;;;;5093956;28;20093;-80
2022/10/22 01:35:51;;;;;;;20.02;13.75;;;13.40;99.90;;;;;;5092590;28;20358;-80
2022/10/22 01:38:20;;;;;;;18.38;12.73;;;13.40;99.90;;;;;;5092379;28;20028;-80
2022/10/22 01:40:46;;;;;;;18.27;12.85;;;13.40;99.90;;;;;;5092506;28;20024;-79
2022/10/22 01:43:13;;;;;;;16.05;11.32;;;13.30;99.90;;;;;;5092921;28;20024;-79
2022/10/22 01:45:41;;;;;;;15.88;11.90;;;13.20;99.90;;;;;;5092448;28;20048;-79
2022/10/22 01:48:18;;;;;;;17.92;12.93;;;13.20;99.90;;;;;;5093704;28;20032;-79
2022/10/22 01:51:11;;;;;;;20.90;14.65;;;13.20;99.90;;;;;;5092655;28;20032;-80
2022/10/22 01:53:37;;;;;;;18.80;13.95;;;13.20;99.90;;;;;;5092091;28;20038;-79
2022/10/22 01:56:26;;;;;;;19.20;13.88;;;13.20;99.90;;;;;;5092275;28;20053;-79
2022/10/22 01:59:01;;;;;;;21.88;13.40;;;13.10;99.90;;;;;;5092121;28;20020;-79
2022/10/22 02:01:45;;;;;;;16.90;10.50;;;13.10;99.90;;;;;;5092315;28;20537;-79
2022/10/22 02:04:26;;;;;;;14.73;8.88;;;13.00;99.90;;;;;;5092182;28;20032;-80
2022/10/22 02:06:55;;;;;;;11.85;7.97;;;13.00;99.90;;;;;;5093460;28;20024;-80
2022/10/22 02:09:24;;;;;;;11.90;7.00;;;13.00;99.90;;;;;;5092198;28;20028;-80
2022/10/22 02:11:51;;;;;;;12.55;7.78;;;13.00;99.90;;;;;;5091958;28;20039;-80
2022/10/22 02:14:19;;;;;;;11.23;6.43;;;13.00;99.90;;;;;;5075218;28;20110;-79
2022/10/22 02:16:48;;;;;;;10.18;6.07;;;12.90;99.90;;;;;;5075288;28;20120;-80
2022/10/22 02:19:25;;;;;;;11.02;6.30;;;12.90;99.90;;;;;;5092093;28;20024;-80
2022/10/22 02:21:52;;;;;;;10.15;6.53;;;12.90;99.90;;;;;;5092045;28;20026;-80
2022/10/22 02:24:18;;;;;;;11.40;6.60;;;12.90;99.90;;;;;;5092071;28;20643;-79
2022/10/22 02:27:01;;;;;;;9.88;6.50;;;12.80;99.90;;;;;;5095216;28;20562;-79
2022/10/22 02:29:35;;;;;;;10.45;6.68;;;12.80;99.90;;;;;;5096057;28;20020;-80
2022/10/22 02:32:04;;;;;;;11.60;7.07;;;12.80;99.90;;;;;;5095998;28;20043;-79
2022/10/22 02:34:32;;;;;;;11.18;6.57;;;12.80;99.90;;;;;;5096360;28;20094;-80
2022/10/22 02:37:00;;;;;;;11.93;6.53;;;12.70;99.90;;;;;;5095959;28;20551;-79
2022/10/22 02:39:28;;;;;;;10.52;6.30;;;12.70;99.90;;;;;;5095918;28;20020;-79
2022/10/22 02:41:54;;;;;;;10.90;5.97;;;12.70;99.90;;;;;;5079354;28;20475;-80
2022/10/22 02:44:21;;;;;;;9.75;6.57;;;12.70;99.90;;;;;;5062394;28;20028;-80
2022/10/22 02:46:47;;;;;;;11.10;6.30;;;12.70;99.90;;;;;;5078880;28;20088;-80
2022/10/22 02:49:13;;;;;;;19.50;6.70;;;12.70;99.90;;;;;;5095705;28;20032;-79
2022/10/22 02:51:39;;;;;;;10.65;5.82;;;12.70;99.90;;;;;;5078804;28;20035;-80
2022/10/22 02:54:04;;;;;;;11.60;6.63;;;12.70;99.90;;;;;;5078924;28;20057;-80
2022/10/22 02:56:30;;;;;;;11.70;6.13;;;12.70;99.90;;;;;;5095901;28;20049;-80
2022/10/22 02:58:56;;;;;;;10.00;6.20;;;12.60;99.90;;;;;;5095954;28;20491;-80
2022/10/22 03:01:22;;;;;;;11.40;6.00;;;12.60;99.90;;;;;;5078587;28;20085;-79
2022/10/22 03:03:47;;;;;;;10.40;5.95;;;12.60;99.90;;;;;;5061775;28;20460;-80
2022/10/22 03:06:13;;;;;;;13.35;7.10;;;12.60;99.90;;;;;;5095714;28;20027;-80
2022/10/22 03:08:39;;;;;;;10.02;6.30;;;12.60;99.90;;;;;;5078533;28;20123;-79
2022/10/22 03:11:05;;;;;;;12.48;6.57;;;12.60;99.90;;;;;;5061836;28;20028;-80
2022/10/22 03:13:30;;;;;;;8.73;6.05;;;12.60;99.90;;;;;;5078148;28;20444;-80
2022/10/22 03:15:56;;;;;;;10.38;6.13;;;12.60;99.90;;;;;;5095419;28;20028;-80
2022/10/22 03:18:22;;;;;;;9.88;5.55;;;12.60;99.90;;;;;;5061585;28;20035;-84
2022/10/22 03:20:47;;;;;;;13.82;6.95;;;12.60;99.90;;;;;;5078397;28;20024;-84
2022/10/22 03:23:16;;;;;;;12.20;5.82;;;12.50;99.90;;;;;;5095590;28;20068;-84
2022/10/22 03:25:43;;;;;;;7.90;5.07;;;12.50;99.90;;;;;;5095136;28;20031;-84
2022/10/22 03:28:12;;;;;;;9.80;5.75;;;12.50;99.90;;;;;;5095146;28;20021;-84
2022/10/22 03:30:38;;;;;;;10.82;5.72;;;12.50;99.90;;;;;;5095045;28;20032;-84
2022/10/22 03:33:03;;;;;;;12.38;5.40;;;12.50;99.90;;;;;;5061761;28;20081;-85
2022/10/22 03:35:30;;;;;;;10.68;6.32;;;12.50;99.90;;;;;;5061352;28;20024;-84
2022/10/22 03:38:00;;;;;;;15.18;6.13;;;12.50;99.90;;;;;;5077984;28;20024;-84
2022/10/22 03:40:25;;;;;;;10.55;4.90;;;12.50;99.90;;;;;;5077950;28;20040;-84
2022/10/22 03:42:51;;;;;;;9.18;5.70;;;12.40;99.90;;;;;;5095047;28;20020;-84
2022/10/22 03:45:17;;;;;;;12.23;5.75;;;12.50;99.90;;;;;;5095061;28;20027;-84
2022/10/22 03:47:43;;;;;;;9.88;5.57;;;12.50;99.90;;;;;;5095044;28;20480;-84
2022/10/22 03:50:09;;;;;;;10.52;5.35;;;12.50;99.90;;;;;;5094531;28;20028;-84
2022/10/22 03:52:39;;;;;;;9.63;4.68;;;12.40;99.90;;;;;;5061179;28;20495;-84
2022/10/22 03:55:05;;;;;;;8.70;4.88;;;12.50;99.90;;;;;;5094417;28;20028;-84
2022/10/22 03:57:31;;;;;;;9.70;5.05;;;12.50;99.90;;;;;;5094409;28;20028;-82
2022/10/22 03:59:57;;;;;;;10.50;5.07;;;12.50;99.90;;;;;;5077721;28;20028;-84
2022/10/22 04:02:22;;;;;;;12.23;4.40;;;12.50;99.90;;;;;;5094676;28;20023;-83
2022/10/22 04:04:48;;;;;;;11.75;4.30;;;12.50;99.90;;;;;;5095426;28;20135;-84
2022/10/22 04:07:14;;;;;;;9.63;4.30;;;12.60;99.90;;;;;;5060896;28;20438;-84
2022/10/22 04:09:39;;;;;;;13.90;4.30;;;12.60;99.90;;;;;;5077527;28;20036;-84
2022/10/22 04:12:06;;;;;;;9.57;4.10;;;12.70;99.90;;;;;;5077202;28;20048;-82
2022/10/22 04:14:32;;;;;;;9.52;4.57;;;12.70;99.90;;;;;;5094222;28;20036;-83
2022/10/22 04:16:58;;;;;;;11.68;4.35;;;12.80;99.90;;;;;;5077176;28;20074;-84
2022/10/22 04:19:24;;;;;;;8.80;4.03;;;12.80;99.90;;;;;;5060711;28;20478;-84
2022/10/22 04:21:49;;;;;;;9.10;3.40;;;12.90;99.90;;;;;;5094204;28;20024;-85
2022/10/22 04:24:15;;;;;;;8.18;4.10;;;12.90;99.90;;;;;;5077295;28;20033;-84
2022/10/22 04:26:41;;;;;;;7.30;3.90;;;12.90;99.90;;;;;;5094132;28;20036;-85
2022/10/22 04:29:07;;;;;;;10.88;4.35;;;13.00;99.90;;;;;;5094115;28;20023;-84
2022/10/22 04:31:33;;;;;;;12.63;3.85;;;13.00;99.90;;;;;;5076939;28;20024;-84
2022/10/22 04:34:00;;;;;;;10.13;4.05;;;13.00;99.90;;;;;;5076856;28;20043;-83
2022/10/22 04:36:27;;;;;;;11.52;4.15;;;13.10;99.90;;;;;;5093830;28;20034;-83
2022/10/22 04:38:56;;;;;;;9.35;4.00;;;13.10;99.90;;;;;;5093828;28;20467;-84
2022/10/22 04:41:28;;;;;;;10.90;4.53;;;13.10;99.90;;;;;;5093752;28;20020;-84
2022/10/22 04:43:55;;;;;;;12.07;4.00;;;13.10;99.90;;;;;;5094001;28;20035;-84
2022/10/22 04:46:22;;;;;;;10.85;4.30;;;13.10;99.90;;;;;;5091434;28;20054;-83
2022/10/22 04:48:49;;;;;;;12.35;4.65;;;13.10;99.90;;;;;;5091220;28;20556;-85
2022/10/22 04:51:17;;;;;;;8.50;4.22;;;13.20;99.90;;;;;;5077066;28;20050;-85
2022/10/22 04:53:44;;;;;;;8.55;4.47;;;13.20;99.90;;;;;;5073712;28;20038;-84
2022/10/22 04:56:12;;;;;;;12.60;3.92;;;13.20;99.90;;;;;;5056291;28;20027;-84
2022/10/22 04:58:38;;;;;;;9.73;3.80;;;13.20;99.90;;;;;;5073011;28;20017;-85
2022/10/22 05:01:16;;;;;;;9.77;4.07;;;13.20;99.90;;;;;;5092911;28;20020;-84
2022/10/22 05:03:42;;;;;;;9.27;3.97;;;13.20;99.90;;;;;;5091898;28;20548;-83
2022/10/22 05:06:08;;;;;;;14.48;4.75;;;13.20;99.90;;;;;;5056575;28;20067;-81
2022/10/22 05:08:35;;;;;;;11.70;5.00;;;13.20;99.90;;;;;;5072666;28;20024;-80
2022/10/22 05:11:00;;;;;;;10.00;4.25;;;13.20;99.90;;;;;;5081438;28;20459;-80
2022/10/22 05:13:26;;;;;;;12.88;4.05;;;13.20;99.90;;;;;;5075665;28;20131;-80
2022/10/22 05:15:52;;;;;;;9.88;4.43;;;13.20;99.90;;;;;;5072494;28;20024;-80
2022/10/22 05:18:17;;;;;;;10.45;3.95;;;13.20;99.90;;;;;;5072559;28;20028;-80
2022/10/22 05:20:43;;;;;;;8.48;4.20;;;13.20;99.90;;;;;;5072610;28;20115;-80
2022/10/22 05:23:09;;;;;;;11.18;5.18;;;13.30;99.90;;;;;;5072677;28;20152;-80
2022/10/22 05:25:38;;;;;;;11.48;4.43;;;13.20;99.90;;;;;;5072446;28;20542;-80
2022/10/22 05:28:04;;;;;;;12.25;4.43;;;13.20;99.90;;;;;;5089352;28;20032;-80
2022/10/22 05:30:30;;;;;;;8.05;4.57;;;13.20;99.90;;;;;;5072290;28;20358;-80
2022/10/22 05:32:55;;;;;;;12.18;5.13;;;13.20;99.90;;;;;;5089308;28;20039;-85
2022/10/22 05:35:21;;;;;;;13.30;4.88;;;13.20;99.90;;;;;;5072537;28;20028;-85
2022/10/22 05:37:47;;;;;;;12.15;4.63;;;13.20;99.90;;;;;;5072456;28;20024;-84
2022/10/22 05:40:12;;;;;;;9.43;3.88;;;13.20;99.90;;;;;;5089349;28;20104;-84
2022/10/22 05:42:38;;;;;;;10.10;4.20;;;13.30;99.90;;;;;;5072193;28;20032;-84
2022/10/22 05:45:04;;;;;;;15.20;5.15;;;13.20;99.90;;;;;;5072187;28;20459;-84
2022/10/22 05:47:30;;;;;;;12.85;4.43;;;13.20;99.90;;;;;;5072412;28;20036;-83
2022/10/22 05:49:56;;;;;;;10.63;4.03;;;13.20;99.90;;;;;;5072331;28;20037;-84
2022/10/22 05:52:23;;;;;;;14.30;4.70;;;13.20;99.90;;;;;;5089346;28;20158;-85
2022/10/22 05:54:49;;;;;;;10.30;4.32;;;13.20;99.90;;;;;;5072366;28;20055;-84
2022/10/22 05:57:14;;;;;;;9.88;4.78;;;13.10;99.90;;;;;;5072266;28;20468;-85
2022/10/22 05:59:40;;;;;;;9.60;4.18;;;13.20;99.90;;;;;;5072201;28;20491;-84
2022/10/22 06:02:08;;;;;;;11.18;5.00;;;13.20;99.90;;;;;;5072316;28;20020;-85
2022/10/22 06:04:33;;;;;;;9.00;4.13;;;13.20;99.90;;;;;;5072326;28;20040;-84
2022/10/22 06:06:59;;;;;;;10.88;5.22;;;13.20;99.90;;;;;;5072115;28;20029;-84
2022/10/22 06:09:33;;;;;;;7.78;4.43;;;13.10;99.90;;;;;;5072602;28;20079;-85
2022/10/22 06:11:58;;;;;;;11.45;5.10;;;13.30;99.90;;;;;;5072113;28;20049;-86
2022/10/22 06:14:25;;;;;;;9.50;4.63;;;13.20;99.90;;;;;;5072454;28;20056;-84
2022/10/22 06:16:51;;;;;;;8.90;4.00;;;13.30;99.90;;;;;;5072165;28;20021;-85
2022/10/22 06:19:24;;;;;;;11.07;5.22;;;13.30;99.90;;;;;;5089065;28;20074;-84
2022/10/22 06:21:50;;;;;;;10.93;3.88;;;13.30;99.90;;;;;;5073387;28;20020;-83
2022/10/22 06:24:15;;;;;;;9.65;4.25;;;13.30;99.90;;;;;;5071996;28;20028;-83
2022/10/22 06:26:41;;;;;;;8.95;4.38;;;13.40;99.90;;;;;;5072035;28;20127;-84
2022/10/22 06:29:07;;;;;;;9.27;4.50;;;13.40;99.90;;;;;;5088806;28;20044;-85
2022/10/22 06:31:35;;;;;;;12.98;4.13;;;13.50;99.90;;;;;;5072136;28;20485;-86
2022/10/22 06:34:11;;;;;;;11.13;4.43;;;13.50;99.90;;;;;;5080308;28;20059;-82
2022/10/22 06:36:37;;;;;;;10.40;3.63;;;13.50;99.90;;;;;;5072071;28;20012;-85
2022/10/22 06:39:03;;;;;;;10.77;4.63;;;13.60;99.90;;;;;;5072046;28;20017;-84
2022/10/22 06:41:29;;;;;;;13.07;4.80;;;13.60;99.90;;;;;;5072238;28;20090;-86
2022/10/22 06:43:56;;;;;;;7.38;3.45;;;13.60;99.90;;;;;;5075175;28;20099;-84
2022/10/22 06:46:23;;;;;;;8.85;4.10;;;13.60;99.90;;;;;;5075308;28;20031;-82
2022/10/22 06:48:54;;;;;;;7.57;3.25;;;13.60;99.90;;;;;;5071850;28;20063;-86
2022/10/22 06:51:20;;;;;;;13.07;3.95;;;13.50;99.90;;;;;;5071986;28;20021;-86
2022/10/22 06:53:47;;;;;;;10.45;4.05;;;13.60;99.90;;;;;;5062867;28;20029;-80
2022/10/22 06:56:15;;;;;;;10.15;3.80;;;13.60;99.90;;;;;;5091827;28;20074;-80
2022/10/22 06:58:41;;;;;;;9.98;3.72;;;13.60;99.90;;;;;;5091819;28;20020;-79
2022/10/22 07:01:09;;;;;;;10.48;3.75;;;13.60;99.90;;;;;;5092202;28;20020;-80
2022/10/22 07:03:36;;;;;;;15.82;4.25;;;13.60;99.90;;;;;;5086245;28;20020;-79
2022/10/22 07:06:05;;;;;;;10.02;3.55;;;13.60;99.90;;;;;;5088243;28;20376;-81
2022/10/22 07:08:31;;;;;;;9.90;3.30;;;13.70;99.90;;;;;;5080736;28;20024;-79
2022/10/22 07:11:09;;;;;;;9.73;3.55;;;13.70;99.90;;;;;;5067855;28;20027;-80
2022/10/22 07:13:35;;;;;;;13.82;3.60;;;13.80;99.90;;;;;;5092792;28;20047;-79
2022/10/22 07:16:01;;;;;;;8.70;3.05;;;13.90;99.90;;;;;;5071721;28;20017;-80
2022/10/22 07:18:27;;;;;;;6.68;2.88;;;13.90;99.90;;;;;;5082598;28;20412;-80
2022/10/22 07:20:53;;;;;;;13.77;3.42;;;14.00;99.90;;;;;;5076802;28;20020;-81
2022/10/22 07:23:18;;;;;;;11.43;3.25;;;14.10;99.90;;;;;;5081083;28;20033;-81
2022/10/22 07:25:44;;;;;;;8.20;2.90;;;14.10;99.90;;;;;;5081244;28;20024;-80
2022/10/22 07:28:10;;;;;;;7.88;2.88;;;14.20;99.90;;;;;;5080364;28;20207;-79
2022/10/22 07:30:36;;;;;;;6.95;2.67;;;14.20;99.90;;;;;;5091339;28;20024;-80
2022/10/22 07:33:02;;;;;;;10.80;3.03;;;14.30;99.90;;;;;;5091367;28;20111;-80
2022/10/22 07:35:28;;;;;;;9.85;3.63;;;14.30;99.90;;;;;;5091410;28;20116;-80
2022/10/22 07:37:53;;;;;;;11.60;3.05;;;14.40;99.90;;;;;;5091831;28;20078;-79
2022/10/22 07:40:19;;;;;;;10.88;2.75;;;14.50;99.90;;;;;;5057471;28;20029;-77
2022/10/22 07:42:45;;;;;;;11.98;2.42;;;14.50;99.90;;;;;;5074470;28;20465;-79
2022/10/22 07:45:10;;;;;;;6.80;2.05;;;14.60;99.90;;;;;;5074192;28;20500;-80
2022/10/22 07:47:36;;;;;;;6.65;3.03;;;14.60;99.90;;;;;;5074536;28;20025;-80
2022/10/22 07:50:02;;;;;;;14.23;3.78;;;14.70;99.90;;;;;;5084302;28;20480;-80
2022/10/22 07:52:28;;;;;;;9.85;3.03;;;14.70;99.90;;;;;;5094822;28;20024;-80
2022/10/22 07:54:53;;;;;;;9.05;2.85;;;14.70;99.90;;;;;;5077362;28;20499;-79
2022/10/22 07:57:19;;;;;;;9.85;2.60;;;14.70;99.90;;;;;;5094524;28;20421;-80
2022/10/22 07:59:45;;;;;;;10.43;2.58;;;14.70;99.90;;;;;;5094517;28;20031;-80
2022/10/22 08:02:11;;;;;;;12.90;2.85;;;14.70;99.90;;;;;;5077121;28;20388;-79
2022/10/22 08:04:37;;;;;;;8.82;3.15;;;14.80;99.90;;;;;;5092557;28;20392;-78
2022/10/22 08:07:03;;;;;;;7.82;2.78;;;14.90;99.90;;;;;;5094080;28;20027;-80
2022/10/22 08:09:29;;;;;;;11.20;2.33;;;15.00;99.90;;;;;;5077425;28;20020;-80
2022/10/22 08:11:54;;;;;;;6.95;1.92;;;15.10;99.90;;;;;;5077553;28;20111;-81
2022/10/22 08:14:20;;;;;;;12.82;3.42;;;15.20;99.90;;;;;;5076907;28;20052;-80
2022/10/22 08:16:46;;;;;;;10.20;2.35;;;15.30;99.90;;;;;;5093786;28;20063;-80
2022/10/22 08:19:12;;;;;;;8.48;1.95;;;15.40;99.90;;;;;;5080738;28;20039;-79
2022/10/22 08:21:38;;;;;;;7.97;2.08;;;15.50;99.90;;;;;;5056959;28;20116;-80
2022/10/22 08:24:05;;;;;;;5.43;1.85;;;15.50;99.90;;;;;;5058609;28;20043;-80
2022/10/22 08:26:30;;;;;;;9.77;2.28;;;15.60;99.90;;;;;;5057020;28;20025;-84
2022/10/22 08:28:56;;;;;;;9.30;2.00;;;15.60;99.90;;;;;;5056801;28;20044;-83
2022/10/22 08:31:21;;;;;;;12.82;2.42;;;15.60;99.90;;;;;;5040211;28;20028;-78
2022/10/22 08:33:47;;;;;;;10.77;1.52;;;15.70;99.90;;;;;;5057014;28;20495;-81
2022/10/22 08:36:13;;;;;;;9.18;2.45;;;15.80;99.90;;;;;;5057023;28;20031;-80
2022/10/22 08:38:38;;;;;;;11.27;2.55;;;15.80;99.90;;;;;;5073802;28;20016;-81
2022/10/22 08:41:16;;;;;;;7.95;1.75;;;15.90;99.90;;;;;;5074801;28;20028;-84
2022/10/22 08:44:03;;;;;;;11.23;2.03;;;16.00;99.90;;;;;;5073575;28;20024;-84
2022/10/22 08:46:51;;;;;;;10.38;2.45;;;16.00;99.90;;;;;;5090288;28;20125;-83
2022/10/22 08:49:24;;;;;;;10.18;2.00;;;16.10;99.90;;;;;;5073237;28;20472;-84
2022/10/22 08:51:50;;;;;;;14.43;1.90;;;16.20;99.90;;;;;;5073345;28;20078;-83
2022/10/22 08:55:04;;;;;;;6.68;1.60;;;16.20;99.90;;;;;;5073258;28;20048;-84
2022/10/22 08:58:02;;;;;;;9.25;2.28;;;16.30;99.90;;;;;;5065026;28;20036;-85
2022/10/22 09:00:45;;;;;;;10.38;1.58;;;16.40;99.90;;;;;;5073734;28;20031;-82
2022/10/22 09:03:46;;;;;;;14.27;2.67;;;16.40;99.90;;;;;;5072910;28;20074;-80
2022/10/22 09:06:25;;;;;;;8.00;1.67;;;16.40;99.90;;;;;;5062006;28;20086;-85
2022/10/22 09:08:52;;;;;;;8.55;1.40;;;16.40;99.90;;;;;;5072793;28;20099;-82
2022/10/22 09:11:35;;;;;;;12.07;1.85;;;16.40;99.90;;;;;;5073068;28;20108;-84
2022/10/22 09:14:02;;;;;;;7.35;1.10;;;16.40;99.90;;;;;;5073688;28;20075;-84
2022/10/22 09:16:49;;;;;;;9.18;1.10;;;16.40;99.90;;;;;;5072640;28;20016;-83
2022/10/22 09:19:56;;;;;;;13.07;1.80;;;16.40;99.90;;;;;;5073495;28;20123;-87
2022/10/22 09:22:41;;;;;;;9.25;1.35;;;16.40;99.90;;;;;;5073459;28;20028;-86
2022/10/22 09:25:22;;;;;;;9.35;1.30;;;16.40;99.90;;;;;;5080428;28;20020;-85
2022/10/22 09:27:49;;;;;;;8.13;1.40;;;16.40;99.90;;;;;;5093600;28;20120;-86
2022/10/22 09:30:21;;;;;;;8.55;1.17;;;16.40;99.90;;;;;;5093251;28;20023;-85
2022/10/22 09:32:53;;;;;;;7.70;1.15;;;16.40;99.90;;;;;;5093820;28;20020;-85
2022/10/22 09:35:23;;;;;;;8.48;1.65;;;16.40;99.90;;;;;;5094750;28;20048;-87
2022/10/22 09:37:52;;;;;;;7.93;1.48;;;16.40;99.90;;;;;;5094649;28;20065;-86
2022/10/22 09:40:18;;;;;;;9.40;1.58;;;16.40;99.90;;;;;;5092897;28;20463;-85
2022/10/22 09:42:45;;;;;;;11.13;1.50;;;16.40;99.90;;;;;;5094441;28;20024;-86
2022/10/22 09:45:19;;;;;;;10.20;1.70;;;16.40;99.90;;;;;;5092859;28;20109;-87
2022/10/22 09:47:45;;;;;;;9.70;1.60;;;16.40;99.90;;;;;;5094101;28;20031;-86
2022/10/22 09:50:38;;;;;;;8.32;1.50;;;16.50;99.90;;;;;;5079123;28;20124;-87
2022/10/22 09:53:18;;;;;;;7.25;1.30;;;16.50;99.90;;;;;;5083843;28;20039;-82
2022/10/22 09:55:50;;;;;;;7.43;1.10;;;16.50;99.90;;;;;;5073676;28;20017;-86
2022/10/22 09:58:17;;;;;;;8.48;1.33;;;16.60;99.90;;;;;;5078562;28;20024;-87
2022/10/22 10:00:47;;;;;;;10.57;1.50;;;16.70;99.90;;;;;;5092698;28;20035;-87
2022/10/22 10:03:18;;;;;;;12.95;1.35;;;16.80;99.90;;;;;;5093013;28;20020;-87
2022/10/22 10:05:51;;;;;;;6.80;1.20;;;16.80;99.90;;;;;;5092641;28;20384;-85
2022/10/22 10:08:17;;;;;;;11.73;1.73;;;17.00;99.90;;;;;;5092432;28;20020;-83
2022/10/22 10:10:58;;;;;;;7.75;1.17;;;17.00;99.90;;;;;;5091417;28;20034;-85
2022/10/22 10:13:51;;;;;;;9.57;1.35;;;17.00;99.90;;;;;;5073378;28;20489;-83
2022/10/22 10:16:23;;;;;;;8.80;1.30;;;17.00;99.70;;;;;;5071987;28;20054;-84
2022/10/22 10:19:06;;;;;;;5.28;1.23;;;17.10;99.90;;;;;;5072483;28;20023;-86
2022/10/22 10:22:13;;;;;;;6.97;1.00;;;17.20;99.80;;;;;;5085516;28;20051;-84
2022/10/22 10:24:53;;;;;;;9.50;1.60;;;17.20;99.50;;;;;;5092450;28;20028;-84
2022/10/22 10:27:22;;;;;;;8.20;1.67;;;17.30;99.40;;;;;;5093518;28;20173;-80
2022/10/22 10:30:12;;;;;;;10.10;1.42;;;17.30;99.20;;;;;;5092903;28;20077;-79
2022/10/22 10:33:32;;;;;;;7.93;1.45;;;17.30;99.10;;;;;;5091967;28;20031;-82
2022/10/22 10:36:09;;;;;;;10.57;1.48;;;17.20;98.90;;;;;;5087585;28;20036;-81
2022/10/22 10:38:44;;;;;;;8.70;1.73;;;17.30;98.90;;;;;;5091786;28;20108;-82
2022/10/22 10:41:43;;;;;;;8.63;1.10;;;17.20;98.90;;;;;;5092002;28;20429;-80
2022/10/22 10:44:16;;;;;;;10.55;1.58;;;17.30;98.90;;;;;;5091906;28;20035;-81
2022/10/22 10:47:12;;;;;;;9.18;1.95;;;17.30;98.50;;;;;;5093212;28;20111;-80
2022/10/22 10:49:38;;;;;;;8.57;1.75;;;17.40;98.70;;;;;;5096877;28;20024;-82
2022/10/22 10:52:31;;;;;;;5.60;1.40;;;17.50;98.80;;;;;;5094008;28;20073;-82
2022/10/22 10:55:31;;;;;;;11.55;1.77;;;17.80;98.80;;;;;;5097171;28;20024;-83
2022/10/22 10:58:22;;;;;;;7.80;1.30;;;18.10;98.80;;;;;;5095443;28;20054;-82
2022/10/22 11:01:15;;;;;;;7.53;1.20;;;18.50;98.70;;;;;;5096123;28;20028;-83
2022/10/22 11:04:19;;;;;;;5.85;1.48;;;18.90;98.50;;;;;;5096086;28;20028;-83
2022/10/22 11:06:45;;;;;;;8.80;1.52;;;19.30;97.50;;;;;;5095552;28;20385;-82
2022/10/22 11:09:22;;;;;;;4.78;1.10;;;19.40;96.80;;;;;;5078448;28;20024;-84
2022/10/22 11:11:54;;;;;;;6.20;1.60;;;19.50;95.70;;;;;;5095752;28;20102;-83
2022/10/22 11:14:28;;;;;;;11.35;1.30;;;19.80;95.60;;;;;;5094975;28;20599;-84
2022/10/22 11:16:53;;;;;;;7.80;1.05;;;20.20;94.70;;;;;;5095123;28;20081;-81
2022/10/22 11:19:33;;;;;;;9.85;1.95;;;20.60;94.30;;;;;;5095027;28;20024;-85
2022/10/22 11:22:25;;;;;;;14.07;1.35;;;21.00;92.40;;;;;;5095040;28;20031;-82
2022/10/22 11:25:11;;;;;;;6.63;1.13;;;21.40;90.80;;;;;;5095558;28;20030;-83
2022/10/22 11:27:55;;;;;;;6.43;1.05;;;21.90;90.00;;;;;;5095365;28;20503;-84
2022/10/22 11:30:23;;;;;;;6.80;1.00;;;22.30;86.60;;;;;;5096645;28;20043;-80
2022/10/22 11:33:31;;;;;;;7.93;1.02;;;22.60;82.70;;;;;;5083252;28;20391;-84
2022/10/22 11:35:58;;;;;;;5.28;0.90;;;23.10;81.70;;;;;;5094815;28;20032;-84
2022/10/22 11:38:25;;;;;;;7.05;1.00;;;23.60;77.80;;;;;;5095034;28;20028;-85
2022/10/22 11:41:20;;;;;;;6.30;1.30;;;23.80;76.00;;;;;;5094784;28;20081;-85
2022/10/22 11:43:57;;;;;;;5.22;1.10;;;24.00;75.30;;;;;;5076548;28;20499;-82
2022/10/22 11:46:28;;;;;;;8.63;1.27;;;24.20;74.80;;;;;;5094584;28;20013;-81
2022/10/22 11:49:06;;;;;;;6.57;0.80;;;24.20;72.10;;;;;;5094944;28;20491;-83
2022/10/22 11:51:37;;;;;;;5.75;0.90;;;24.10;71.10;;;;;;5095818;28;20597;-82
2022/10/22 11:54:25;;;;;;;10.05;1.33;;;23.80;69.60;;;;;;5094709;28;20028;-84
2022/10/22 11:56:57;;;;;;;8.40;1.50;;;23.50;70.50;;;;;;5094397;28;20031;-84
2022/10/22 11:59:44;;;;;;;9.50;1.50;;;23.20;69.70;;;;;;5095634;28;20016;-82
2022/10/22 12:02:34;;;;;;;7.10;1.33;;;23.30;70.00;;;;;;5094815;28;20380;-84
2022/10/22 12:05:33;;;;;;;8.07;1.30;;;23.60;69.00;;;;;;5094703;28;20107;-87
2022/10/22 12:08:26;;;;;;;8.85;1.02;;;23.90;67.70;;;;;;5094542;28;20028;-85
2022/10/22 12:11:11;;;;;;;8.65;1.35;;;23.80;66.30;;;;;;5094269;28;20103;-84
2022/10/22 12:14:10;;;;;;;8.77;1.42;;;23.40;65.70;;;;;;5094659;28;20133;-87
2022/10/22 12:16:39;;;;;;;7.40;1.50;;;23.30;68.00;;;;;;5094419;28;20035;-87
2022/10/22 12:19:17;;;;;;;7.03;0.95;;;23.70;67.80;;;;;;5094292;28;20518;-84
2022/10/22 12:21:47;;;;;;;8.32;1.48;;;24.30;67.10;;;;;;5083625;28;20024;-83
2022/10/22 12:24:16;;;;;;;8.02;1.33;;;24.70;65.90;;;;;;5076790;28;20039;-83
2022/10/22 12:26:45;;;;;;;8.43;1.23;;;25.10;64.30;;;;;;5076219;28;20571;-85
2022/10/22 12:29:14;;;;;;;9.38;1.52;;;25.00;63.70;;;;;;5056981;28;20452;-83
2022/10/22 12:31:43;;;;;;;9.32;1.63;;;24.70;62.40;;;;;;5073495;28;20481;-82
2022/10/22 12:34:21;;;;;;;12.15;1.52;;;24.20;62.90;;;;;;5074897;28;20029;-81
2022/10/22 12:36:49;;;;;;;8.63;1.30;;;23.70;64.20;;;;;;5073478;28;20017;-82
2022/10/22 12:39:18;;;;;;;6.85;1.00;;;23.30;64.70;;;;;;5073692;28;20063;-85
2022/10/22 12:41:44;;;;;;;10.45;1.20;;;22.80;65.30;;;;;;5073243;28;20020;-83
2022/10/22 12:44:15;;;;;;;7.50;1.10;;;22.30;66.30;;;;;;5073485;28;20029;-84
2022/10/22 12:46:43;;;;;;;10.98;1.70;;;21.90;68.20;;;;;;5073281;28;20056;-83
2022/10/22 12:49:22;;;;;;;8.98;1.20;;;21.70;68.70;;;;;;5092597;28;20024;-82
2022/10/22 12:51:48;;;;;;;9.88;1.20;;;22.00;70.00;;;;;;5093316;28;20503;-83
2022/10/22 12:54:33;;;;;;;5.82;0.93;;;22.70;70.90;;;;;;5093652;28;20020;-87
2022/10/22 12:57:02;;;;;;;8.85;1.17;;;23.40;69.50;;;;;;5094189;28;20102;-87
2022/10/22 12:59:39;;;;;;;9.60;1.42;;;23.90;67.30;;;;;;5076803;28;20031;-87
2022/10/22 13:02:26;;;;;;;6.95;1.13;;;23.80;65.40;;;;;;5094846;28;20102;-84
2022/10/22 13:05:20;;;;;;;13.60;1.77;;;23.70;65.10;;;;;;5093620;28;20035;-87